sensor_id;sensor_type;location;lat;lon;timestamp;pressure;altitude;pressure_sealevel;temperature;humidity
32243;BME280;18731;42.830;24.390;2022-09-09T02:59:08;94690.16;;;14.22;82.44
32243;BME280;18731;42.830;24.390;2022-09-09T03:01:35;94705.41;;;14.34;82.73
32243;BME280;18731;42.830;24.390;2022-09-09T03:04:02;94697.25;;;14.14;82.60
32243;BME280;18731;42.830;24.390;2022-09-09T03:06:30;94689.28;;;14.18;82.44
32243;BME280;18731;42.830;24.390;2022-09-09T03:08:56;94653.16;;;14.00;82.13
32243;BME280;18731;42.830;24.390;2022-09-09T03:11:22;94723.41;;;14.33;81.88
32243;BME280;18731;42.830;24.390;2022-09-09T03:13:48;94702.78;;;14.22;81.95
32243;BME280;18731;42.830;24.390;2022-09-09T03:16:14;94706.34;;;14.26;82.61
32243;BME280;18731;42.830;24.390;2022-09-09T03:18:40;94700.97;;;14.26;82.12
32243;BME280;18731;42.830;24.390;2022-09-09T03:21:06;94716.56;;;14.36;81.87
32243;BME280;18731;42.830;24.390;2022-09-09T03:23:32;94652.63;;;13.94;81.86
32243;BME280;18731;42.830;24.390;2022-09-09T03:25:57;94694.22;;;14.32;81.75
32243;BME280;18731;42.830;24.390;2022-09-09T03:28:24;94699.25;;;14.33;82.11
32243;BME280;18731;42.830;24.390;2022-09-09T03:31:06;94715.44;;;14.37;82.44
32243;BME280;18731;42.830;24.390;2022-09-09T03:33:36;94718.13;;;14.37;83.03
32243;BME280;18731;42.830;24.390;2022-09-09T03:36:03;94695.50;;;14.22;82.02
32243;BME280;18731;42.830;24.390;2022-09-09T03:38:29;94713.63;;;14.41;81.55
32243;BME280;18731;42.830;24.390;2022-09-09T03:40:56;94721.47;;;14.46;81.17
32243;BME280;18731;42.830;24.390;2022-09-09T03:43:26;94717.44;;;14.40;81.37
32243;BME280;18731;42.830;24.390;2022-09-09T03:45:52;94706.69;;;14.40;81.82
32243;BME280;18731;42.830;24.390;2022-09-09T03:48:18;94695.19;;;14.39;81.32
32243;BME280;18731;42.830;24.390;2022-09-09T03:50:49;94707.94;;;14.42;81.34
32243;BME280;18731;42.830;24.390;2022-09-09T03:53:16;94710.16;;;14.40;81.64
32243;BME280;18731;42.830;24.390;2022-09-09T03:55:53;94689.81;;;14.24;81.49
32243;BME280;18731;42.830;24.390;2022-09-09T03:58:25;94700.09;;;14.22;81.83
32243;BME280;18731;42.830;24.390;2022-09-09T04:00:57;94715.78;;;14.35;81.74
32243;BME280;18731;42.830;24.390;2022-09-09T04:03:24;94706.16;;;14.19;82.17
32243;BME280;18731;42.830;24.390;2022-09-09T04:05:54;94641.53;;;13.80;82.40
32243;BME280;18731;42.830;24.390;2022-09-09T04:08:21;94700.28;;;14.29;82.18
32243;BME280;18731;42.830;24.390;2022-09-09T04:10:48;94689.38;;;14.22;82.40
32243;BME280;18731;42.830;24.390;2022-09-09T04:13:16;94706.25;;;14.38;82.42
32243;BME280;18731;42.830;24.390;2022-09-09T04:15:42;94708.94;;;14.38;82.10
32243;BME280;18731;42.830;24.390;2022-09-09T04:18:08;94711.84;;;14.45;81.42
32243;BME280;18731;42.830;24.390;2022-09-09T04:20:34;94655.69;;;14.08;81.86
32243;BME280;18731;42.830;24.390;2022-09-09T04:23:01;94713.63;;;14.41;82.95
32243;BME280;18731;42.830;24.390;2022-09-09T04:25:26;94705.06;;;14.35;83.49
32243;BME280;18731;42.830;24.390;2022-09-09T04:27:56;94713.06;;;14.47;82.89
32243;BME280;18731;42.830;24.390;2022-09-09T04:30:24;94716.25;;;14.53;82.14
32243;BME280;18731;42.830;24.390;2022-09-09T04:32:50;94711.31;;;14.55;82.12
32243;BME280;18731;42.830;24.390;2022-09-09T04:35:16;94707.34;;;14.49;82.57
32243;BME280;18731;42.830;24.390;2022-09-09T04:37:42;94702.06;;;14.53;82.88
32243;BME280;18731;42.830;24.390;2022-09-09T04:40:08;94653.78;;;14.25;82.73
32243;BME280;18731;42.830;24.390;2022-09-09T04:42:37;94712.69;;;14.65;82.74
32243;BME280;18731;42.830;24.390;2022-09-09T04:45:05;94724.13;;;14.77;82.11
32243;BME280;18731;42.830;24.390;2022-09-09T04:47:32;94721.88;;;14.79;82.49
32243;BME280;18731;42.830;24.390;2022-09-09T04:50:00;94677.97;;;14.56;82.80
32243;BME280;18731;42.830;24.390;2022-09-09T04:52:26;94690.59;;;14.71;83.16
32243;BME280;18731;42.830;24.390;2022-09-09T04:54:51;94721.00;;;14.91;83.05
32243;BME280;18731;42.830;24.390;2022-09-09T04:57:19;94724.47;;;14.92;83.66
32243;BME280;18731;42.830;24.390;2022-09-09T04:59:45;94717.53;;;14.91;83.23
32243;BME280;18731;42.830;24.390;2022-09-09T05:02:11;94721.13;;;15.14;83.44
32243;BME280;18731;42.830;24.390;2022-09-09T05:04:37;94721.00;;;15.26;82.94
32243;BME280;18731;42.830;24.390;2022-09-09T05:07:03;94645.44;;;14.77;82.71
32243;BME280;18731;42.830;24.390;2022-09-09T05:09:28;94708.03;;;15.12;83.07
32243;BME280;18731;42.830;24.390;2022-09-09T05:11:55;94731.22;;;15.36;83.09
32243;BME280;18731;42.830;24.390;2022-09-09T05:14:21;94688.81;;;15.30;83.06
32243;BME280;18731;42.830;24.390;2022-09-09T05:16:48;94713.63;;;15.58;82.73
32243;BME280;18731;42.830;24.390;2022-09-09T05:19:15;94655.06;;;15.32;82.94
32243;BME280;18731;42.830;24.390;2022-09-09T05:21:40;94711.47;;;15.83;82.71
32243;BME280;18731;42.830;24.390;2022-09-09T05:24:07;94643.59;;;15.55;82.13
32243;BME280;18731;42.830;24.390;2022-09-09T05:26:33;94702.06;;;16.16;81.65
32243;BME280;18731;42.830;24.390;2022-09-09T05:28:58;94701.72;;;16.40;81.07
32243;BME280;18731;42.830;24.390;2022-09-09T05:31:26;94689.56;;;16.50;80.56
32243;BME280;18731;42.830;24.390;2022-09-09T05:33:53;94699.81;;;16.63;80.11
32243;BME280;18731;42.830;24.390;2022-09-09T05:36:20;94683.88;;;16.78;79.52
32243;BME280;18731;42.830;24.390;2022-09-09T05:38:47;94661.44;;;16.70;79.08
32243;BME280;18731;42.830;24.390;2022-09-09T05:41:13;94669.16;;;16.98;78.57
32243;BME280;18731;42.830;24.390;2022-09-09T05:43:43;94660.75;;;17.03;78.37
32243;BME280;18731;42.830;24.390;2022-09-09T05:46:12;94672.34;;;17.33;77.62
32243;BME280;18731;42.830;24.390;2022-09-09T05:48:40;94671.88;;;17.58;77.27
32243;BME280;18731;42.830;24.390;2022-09-09T05:51:09;94663.56;;;17.70;76.84
32243;BME280;18731;42.830;24.390;2022-09-09T05:53:37;94671.13;;;17.91;75.70
32243;BME280;18731;42.830;24.390;2022-09-09T05:56:04;94673.69;;;18.14;75.16
32243;BME280;18731;42.830;24.390;2022-09-09T05:58:32;94671.22;;;18.35;74.82
32243;BME280;18731;42.830;24.390;2022-09-09T06:03:34;94669.19;;;18.69;73.89
32243;BME280;18731;42.830;24.390;2022-09-09T06:06:01;94629.69;;;18.57;72.50
32243;BME280;18731;42.830;24.390;2022-09-09T06:08:27;94654.41;;;19.07;72.86
32243;BME280;18731;42.830;24.390;2022-09-09T06:10:53;94662.22;;;19.23;72.01
32243;BME280;18731;42.830;24.390;2022-09-09T06:13:19;94668.91;;;19.47;71.57
32243;BME280;18731;42.830;24.390;2022-09-09T06:15:51;94660.56;;;19.80;71.03
32243;BME280;18731;42.830;24.390;2022-09-09T06:18:18;94657.53;;;20.07;69.96
32243;BME280;18731;42.830;24.390;2022-09-09T06:21:01;94659.50;;;20.28;68.86
32243;BME280;18731;42.830;24.390;2022-09-09T06:23:30;94667.31;;;20.54;68.99
32243;BME280;18731;42.830;24.390;2022-09-09T06:26:08;94659.97;;;20.83;68.98
32243;BME280;18731;42.830;24.390;2022-09-09T06:28:35;94658.41;;;21.07;68.69
32243;BME280;18731;42.830;24.390;2022-09-09T06:31:05;94663.44;;;21.26;67.34
32243;BME280;18731;42.830;24.390;2022-09-09T06:33:34;94661.41;;;21.55;66.50
32243;BME280;18731;42.830;24.390;2022-09-09T06:36:01;94652.78;;;21.78;66.38
32243;BME280;18731;42.830;24.390;2022-09-09T06:38:27;94662.72;;;22.09;64.94
32243;BME280;18731;42.830;24.390;2022-09-09T06:40:54;94662.97;;;22.36;63.62
32243;BME280;18731;42.830;24.390;2022-09-09T06:43:22;94664.06;;;22.46;62.99
32243;BME280;18731;42.830;24.390;2022-09-09T06:45:59;94668.56;;;22.67;62.45
32243;BME280;18731;42.830;24.390;2022-09-09T06:48:26;94658.72;;;22.87;61.79
32243;BME280;18731;42.830;24.390;2022-09-09T06:51:21;94656.47;;;23.20;61.58
32243;BME280;18731;42.830;24.390;2022-09-09T06:53:50;94655.81;;;23.46;63.00
32243;BME280;18731;42.830;24.390;2022-09-09T06:58:42;94606.69;;;23.57;62.47
32243;BME280;18731;42.830;24.390;2022-09-09T07:01:11;94651.00;;;24.22;61.32
32243;BME280;18731;42.830;24.390;2022-09-09T07:03:41;94643.22;;;24.51;60.61
32243;BME280;18731;42.830;24.390;2022-09-09T07:06:09;94637.31;;;24.79;59.72
32243;BME280;18731;42.830;24.390;2022-09-09T07:08:40;94634.47;;;25.10;58.67
32243;BME280;18731;42.830;24.390;2022-09-09T07:11:08;94635.63;;;25.32;56.64
32243;BME280;18731;42.830;24.390;2022-09-09T07:13:35;94630.78;;;25.59;57.75
32243;BME280;18731;42.830;24.390;2022-09-09T07:16:05;94634.75;;;25.78;56.49
32243;BME280;18731;42.830;24.390;2022-09-09T07:18:32;94629.06;;;26.09;57.53
32243;BME280;18731;42.830;24.390;2022-09-09T07:20:59;94629.50;;;26.23;57.00
32243;BME280;18731;42.830;24.390;2022-09-09T07:23:25;94622.88;;;26.41;56.48
32243;BME280;18731;42.830;24.390;2022-09-09T07:25:51;94626.84;;;26.56;54.15
32243;BME280;18731;42.830;24.390;2022-09-09T07:28:19;94625.91;;;26.79;54.80
32243;BME280;18731;42.830;24.390;2022-09-09T07:30:56;94634.97;;;27.08;53.98
32243;BME280;18731;42.830;24.390;2022-09-09T07:33:24;94638.94;;;27.36;55.10
32243;BME280;18731;42.830;24.390;2022-09-09T07:35:51;94629.31;;;27.44;52.29
32243;BME280;18731;42.830;24.390;2022-09-09T07:38:18;94630.56;;;27.56;52.58
32243;BME280;18731;42.830;24.390;2022-09-09T07:40:45;94630.78;;;27.78;54.62
32243;BME280;18731;42.830;24.390;2022-09-09T07:43:11;94626.50;;;27.77;52.75
32243;BME280;18731;42.830;24.390;2022-09-09T07:45:37;94631.31;;;27.73;54.12
32243;BME280;18731;42.830;24.390;2022-09-09T07:48:04;94631.84;;;27.68;52.81
32243;BME280;18731;42.830;24.390;2022-09-09T07:50:31;94635.25;;;27.72;50.57
32243;BME280;18731;42.830;24.390;2022-09-09T07:52:56;94631.84;;;27.68;51.91
32243;BME280;18731;42.830;24.390;2022-09-09T07:55:23;94624.66;;;27.58;52.49
32243;BME280;18731;42.830;24.390;2022-09-09T07:57:53;94632.38;;;27.63;54.65
32243;BME280;18731;42.830;24.390;2022-09-09T08:00:19;94621.72;;;27.36;53.27
32243;BME280;18731;42.830;24.390;2022-09-09T08:02:48;94629.50;;;27.37;53.43
32243;BME280;18731;42.830;24.390;2022-09-09T08:05:14;94631.53;;;27.49;52.53
32243;BME280;18731;42.830;24.390;2022-09-09T08:07:40;94619.78;;;27.49;52.96
32243;BME280;18731;42.830;24.390;2022-09-09T08:10:06;94618.16;;;27.51;52.99
32243;BME280;18731;42.830;24.390;2022-09-09T08:12:32;94606.56;;;27.31;53.34
32243;BME280;18731;42.830;24.390;2022-09-09T08:14:58;94611.38;;;27.27;52.52
32243;BME280;18731;42.830;24.390;2022-09-09T08:17:23;94603.69;;;27.22;53.21
32243;BME280;18731;42.830;24.390;2022-09-09T08:19:49;94613.88;;;27.21;54.22
32243;BME280;18731;42.830;24.390;2022-09-09T08:22:15;94604.91;;;27.05;55.02
32243;BME280;18731;42.830;24.390;2022-09-09T08:24:41;94606.44;;;27.22;57.35
32243;BME280;18731;42.830;24.390;2022-09-09T08:27:07;94597.53;;;27.47;55.42
32243;BME280;18731;42.830;24.390;2022-09-09T08:29:35;94597.41;;;27.67;51.96
32243;BME280;18731;42.830;24.390;2022-09-09T08:32:03;94599.22;;;28.11;48.74
32243;BME280;18731;42.830;24.390;2022-09-09T08:34:29;94606.72;;;28.49;51.61
32243;BME280;18731;42.830;24.390;2022-09-09T08:36:56;94592.22;;;28.87;49.28
32243;BME280;18731;42.830;24.390;2022-09-09T08:39:22;94589.31;;;29.03;47.45
32243;BME280;18731;42.830;24.390;2022-09-09T08:42:01;94592.47;;;29.49;47.70
32243;BME280;18731;42.830;24.390;2022-09-09T08:52:53;94591.28;;;30.74;42.48
32243;BME280;18731;42.830;24.390;2022-09-09T08:55:51;94586.56;;;30.92;40.70
32243;BME280;18731;42.830;24.390;2022-09-09T09:03:28;94594.75;;;31.51;38.70
32243;BME280;18731;42.830;24.390;2022-09-09T09:06:10;94590.00;;;31.60;37.94
32243;BME280;18731;42.830;24.390;2022-09-09T09:11:40;94585.22;;;31.88;37.38
32243;BME280;18731;42.830;24.390;2022-09-09T09:14:19;94589.97;;;31.88;38.18
32243;BME280;18731;42.830;24.390;2022-09-09T09:19:19;94585.94;;;32.07;44.19
32243;BME280;18731;42.830;24.390;2022-09-09T09:22:09;94572.31;;;31.94;42.55
32243;BME280;18731;42.830;24.390;2022-09-09T09:30:31;94529.47;;;31.57;37.94
32243;BME280;18731;42.830;24.390;2022-09-09T09:35:25;94580.91;;;31.96;40.41
32243;BME280;18731;42.830;24.390;2022-09-09T09:37:52;94573.84;;;30.86;40.82
32243;BME280;18731;42.830;24.390;2022-09-09T09:40:20;94572.34;;;30.04;43.58
32243;BME280;18731;42.830;24.390;2022-09-09T09:47:59;94570.16;;;29.12;49.27
32243;BME280;18731;42.830;24.390;2022-09-09T09:50:25;94571.44;;;28.73;47.00
32243;BME280;18731;42.830;24.390;2022-09-09T09:52:59;94574.09;;;28.51;48.04
32243;BME280;18731;42.830;24.390;2022-09-09T09:55:26;94574.84;;;28.13;51.32
32243;BME280;18731;42.830;24.390;2022-09-09T09:58:01;94573.84;;;27.82;49.45
32243;BME280;18731;42.830;24.390;2022-09-09T10:00:28;94558.59;;;27.39;52.50
32243;BME280;18731;42.830;24.390;2022-09-09T10:02:54;94574.59;;;27.70;49.62
32243;BME280;18731;42.830;24.390;2022-09-09T10:05:25;94583.78;;;27.63;49.47
32243;BME280;18731;42.830;24.390;2022-09-09T10:08:09;94580.31;;;27.46;50.27
32243;BME280;18731;42.830;24.390;2022-09-09T10:16:23;94579.47;;;28.42;49.03
32243;BME280;18731;42.830;24.390;2022-09-09T10:25:05;94581.06;;;29.59;43.63
32243;BME280;18731;42.830;24.390;2022-09-09T10:30:05;94566.00;;;29.07;51.88
32243;BME280;18731;42.830;24.390;2022-09-09T10:40:31;94570.69;;;28.47;51.87
32243;BME280;18731;42.830;24.390;2022-09-09T10:43:07;94568.69;;;28.09;52.49
32243;BME280;18731;42.830;24.390;2022-09-09T10:57:02;94584.41;;;26.64;56.96
32243;BME280;18731;42.830;24.390;2022-09-09T10:59:32;94583.72;;;26.76;57.92
32243;BME280;18731;42.830;24.390;2022-09-09T11:02:05;94580.59;;;26.90;59.09
32243;BME280;18731;42.830;24.390;2022-09-09T11:04:49;94541.19;;;26.72;58.42
32243;BME280;18731;42.830;24.390;2022-09-09T11:07:33;94546.53;;;26.91;57.66
32243;BME280;18731;42.830;24.390;2022-09-09T11:10:16;94516.81;;;27.06;61.12
32243;BME280;18731;42.830;24.390;2022-09-09T11:12:45;94576.44;;;27.60;57.86
32243;BME280;18731;42.830;24.390;2022-09-09T11:15:25;94573.72;;;27.73;55.08
32243;BME280;18731;42.830;24.390;2022-09-09T11:17:56;94580.00;;;27.99;56.00
32243;BME280;18731;42.830;24.390;2022-09-09T11:20:23;94566.06;;;28.06;58.14
32243;BME280;18731;42.830;24.390;2022-09-09T11:23:09;94578.06;;;28.37;56.45
32243;BME280;18731;42.830;24.390;2022-09-09T11:25:48;94510.66;;;27.98;58.60
32243;BME280;18731;42.830;24.390;2022-09-09T11:36:51;94567.47;;;27.85;59.17
32243;BME280;18731;42.830;24.390;2022-09-09T11:42:18;94570.25;;;27.56;59.95
32243;BME280;18731;42.830;24.390;2022-09-09T11:44:46;94556.88;;;27.58;61.07
32243;BME280;18731;42.830;24.390;2022-09-09T11:47:28;94562.66;;;27.47;59.87
32243;BME280;18731;42.830;24.390;2022-09-09T11:50:10;94569.00;;;27.44;58.71
32243;BME280;18731;42.830;24.390;2022-09-09T11:52:38;94571.94;;;27.37;61.11
32243;BME280;18731;42.830;24.390;2022-09-09T12:00:41;94567.88;;;27.00;60.84
32243;BME280;18731;42.830;24.390;2022-09-09T12:05:57;94562.31;;;26.87;61.11
32243;BME280;18731;42.830;24.390;2022-09-09T12:08:27;94565.03;;;26.87;64.08
32243;BME280;18731;42.830;24.390;2022-09-09T12:10:57;94508.97;;;26.47;61.79
32243;BME280;18731;42.830;24.390;2022-09-09T12:13:25;94407.22;;;25.71;62.92
32243;BME280;18731;42.830;24.390;2022-09-09T12:15:52;94556.75;;;26.75;65.13
32243;BME280;18731;42.830;24.390;2022-09-09T12:18:45;94552.72;;;26.79;63.78
32243;BME280;18731;42.830;24.390;2022-09-09T12:24:00;94548.06;;;27.09;63.23
32243;BME280;18731;42.830;24.390;2022-09-09T12:26:38;94552.50;;;27.19;60.05
32243;BME280;18731;42.830;24.390;2022-09-09T12:31:54;94547.84;;;27.45;62.54
32243;BME280;18731;42.830;24.390;2022-09-09T12:37:26;94543.00;;;27.36;61.22
32243;BME280;18731;42.830;24.390;2022-09-09T12:39:59;94545.41;;;27.34;61.23
32243;BME280;18731;42.830;24.390;2022-09-09T12:42:26;94545.53;;;27.43;60.27
32243;BME280;18731;42.830;24.390;2022-09-09T12:44:53;94535.78;;;27.42;61.66
32243;BME280;18731;42.830;24.390;2022-09-09T12:47:23;94544.44;;;27.41;60.20
32243;BME280;18731;42.830;24.390;2022-09-09T12:49:51;94539.94;;;27.34;60.60
32243;BME280;18731;42.830;24.390;2022-09-09T12:52:25;94498.56;;;27.16;62.85
32243;BME280;18731;42.830;24.390;2022-09-09T12:54:52;94531.03;;;27.30;63.40
32243;BME280;18731;42.830;24.390;2022-09-09T12:57:19;94534.00;;;27.36;63.06
32243;BME280;18731;42.830;24.390;2022-09-09T12:59:48;94523.25;;;27.29;60.34
32243;BME280;18731;42.830;24.390;2022-09-09T13:02:25;94528.84;;;27.25;62.21
32243;BME280;18731;42.830;24.390;2022-09-09T13:04:52;94540.09;;;27.14;62.68
32243;BME280;18731;42.830;24.390;2022-09-09T13:07:20;94535.06;;;26.97;61.74
32243;BME280;18731;42.830;24.390;2022-09-09T13:09:47;94525.19;;;26.70;61.25
32243;BME280;18731;42.830;24.390;2022-09-09T13:12:17;94533.50;;;26.67;61.29
32243;BME280;18731;42.830;24.390;2022-09-09T13:14:47;94542.91;;;26.49;62.07
32243;BME280;18731;42.830;24.390;2022-09-09T13:17:22;94534.78;;;26.30;63.28
32243;BME280;18731;42.830;24.390;2022-09-09T13:19:48;94535.22;;;26.28;64.79
32243;BME280;18731;42.830;24.390;2022-09-09T13:22:34;94536.22;;;26.18;65.70
32243;BME280;18731;42.830;24.390;2022-09-09T13:27:41;94535.91;;;25.96;65.14
32243;BME280;18731;42.830;24.390;2022-09-09T13:30:54;94531.69;;;26.11;64.51
32243;BME280;18731;42.830;24.390;2022-09-09T13:33:22;94530.75;;;26.18;66.04
32243;BME280;18731;42.830;24.390;2022-09-09T13:35:56;94512.47;;;26.15;65.41
32243;BME280;18731;42.830;24.390;2022-09-09T13:38:23;94518.19;;;26.20;64.30
32243;BME280;18731;42.830;24.390;2022-09-09T13:41:09;94513.41;;;26.24;64.02
32243;BME280;18731;42.830;24.390;2022-09-09T13:43:44;94504.69;;;26.13;63.77
32243;BME280;18731;42.830;24.390;2022-09-09T13:46:36;94514.16;;;26.25;64.37
32243;BME280;18731;42.830;24.390;2022-09-09T13:51:45;94508.09;;;26.17;65.12
32243;BME280;18731;42.830;24.390;2022-09-09T13:54:17;94508.78;;;26.21;65.33
32243;BME280;18731;42.830;24.390;2022-09-09T13:56:43;94511.88;;;26.23;66.11
32243;BME280;18731;42.830;24.390;2022-09-09T13:59:15;94458.06;;;25.84;67.20
32243;BME280;18731;42.830;24.390;2022-09-09T14:01:41;94505.09;;;26.12;65.67
32243;BME280;18731;42.830;24.390;2022-09-09T14:04:08;94507.41;;;26.13;65.97
32243;BME280;18731;42.830;24.390;2022-09-09T14:06:35;94505.19;;;26.08;67.55
32243;BME280;18731;42.830;24.390;2022-09-09T14:09:06;94514.59;;;26.07;67.55
32243;BME280;18731;42.830;24.390;2022-09-09T14:11:32;94510.13;;;25.97;68.51
32243;BME280;18731;42.830;24.390;2022-09-09T14:13:58;94511.03;;;25.90;67.05
32243;BME280;18731;42.830;24.390;2022-09-09T14:16:23;94519.00;;;25.85;65.19
32243;BME280;18731;42.830;24.390;2022-09-09T14:18:49;94509.66;;;25.82;65.06
32243;BME280;18731;42.830;24.390;2022-09-09T14:21:15;94516.56;;;25.71;65.32
32243;BME280;18731;42.830;24.390;2022-09-09T14:23:41;94511.19;;;25.67;66.37
32243;BME280;18731;42.830;24.390;2022-09-09T14:26:08;94498.91;;;25.55;66.06
32243;BME280;18731;42.830;24.390;2022-09-09T14:28:35;94502.56;;;25.49;65.04
32243;BME280;18731;42.830;24.390;2022-09-09T14:31:02;94516.88;;;25.37;64.93
32243;BME280;18731;42.830;24.390;2022-09-09T14:33:29;94476.03;;;24.90;65.78
32243;BME280;18731;42.830;24.390;2022-09-09T14:36:03;94515.91;;;25.07;66.85
32243;BME280;18731;42.830;24.390;2022-09-09T14:38:31;94516.03;;;25.00;68.47
32243;BME280;18731;42.830;24.390;2022-09-09T14:40:57;94516.34;;;24.82;67.55
32243;BME280;18731;42.830;24.390;2022-09-09T14:43:24;94531.97;;;24.82;67.80
32243;BME280;18731;42.830;24.390;2022-09-09T14:45:49;94528.66;;;24.71;69.14
32243;BME280;18731;42.830;24.390;2022-09-09T14:48:17;94533.69;;;24.72;69.80
32243;BME280;18731;42.830;24.390;2022-09-09T14:50:43;94525.47;;;24.52;69.55
32243;BME280;18731;42.830;24.390;2022-09-09T14:53:09;94541.91;;;24.49;68.81
32243;BME280;18731;42.830;24.390;2022-09-09T14:55:36;94532.53;;;24.50;68.31
32243;BME280;18731;42.830;24.390;2022-09-09T14:58:03;94523.59;;;24.69;69.17
32243;BME280;18731;42.830;24.390;2022-09-09T15:00:29;94524.31;;;24.73;71.08
32243;BME280;18731;42.830;24.390;2022-09-09T15:02:55;94521.03;;;24.82;70.88
32243;BME280;18731;42.830;24.390;2022-09-09T15:05:21;94505.31;;;24.89;69.01
32243;BME280;18731;42.830;24.390;2022-09-09T15:07:47;94519.34;;;25.11;66.38
32243;BME280;18731;42.830;24.390;2022-09-09T15:10:16;94512.69;;;25.32;65.25
32243;BME280;18731;42.830;24.390;2022-09-09T15:12:43;94501.31;;;25.33;65.57
32243;BME280;18731;42.830;24.390;2022-09-09T15:15:09;94509.75;;;25.59;64.17
32243;BME280;18731;42.830;24.390;2022-09-09T15:17:35;94498.13;;;25.75;63.90
32243;BME280;18731;42.830;24.390;2022-09-09T15:20:04;94446.22;;;25.55;65.35
32243;BME280;18731;42.830;24.390;2022-09-09T15:22:31;94490.63;;;25.79;64.24
32243;BME280;18731;42.830;24.390;2022-09-09T15:24:58;94473.53;;;25.75;64.21
32243;BME280;18731;42.830;24.390;2022-09-09T15:27:24;94494.13;;;25.79;63.71
32243;BME280;18731;42.830;24.390;2022-09-09T15:29:50;94497.28;;;25.78;64.60
32243;BME280;18731;42.830;24.390;2022-09-09T15:32:17;94501.34;;;25.70;64.71
32243;BME280;18731;42.830;24.390;2022-09-09T15:34:43;94484.56;;;25.51;64.25
32243;BME280;18731;42.830;24.390;2022-09-09T15:37:10;94495.56;;;25.48;64.93
32243;BME280;18731;42.830;24.390;2022-09-09T15:39:39;94499.03;;;25.32;65.84
32243;BME280;18731;42.830;24.390;2022-09-09T15:42:06;94500.84;;;25.19;66.51
32243;BME280;18731;42.830;24.390;2022-09-09T15:44:41;94507.22;;;25.12;67.95
32243;BME280;18731;42.830;24.390;2022-09-09T15:47:10;94503.44;;;25.06;69.15
32243;BME280;18731;42.830;24.390;2022-09-09T15:49:37;94504.38;;;24.96;69.51
32243;BME280;18731;42.830;24.390;2022-09-09T15:52:04;94501.44;;;24.87;69.93
32243;BME280;18731;42.830;24.390;2022-09-09T15:54:34;94464.25;;;24.53;70.17
32243;BME280;18731;42.830;24.390;2022-09-09T15:57:02;94508.84;;;24.66;70.39
32243;BME280;18731;42.830;24.390;2022-09-09T15:59:30;94505.25;;;24.50;71.03
32243;BME280;18731;42.830;24.390;2022-09-09T16:01:57;94509.22;;;24.45;71.08
32243;BME280;18731;42.830;24.390;2022-09-09T16:04:25;94520.31;;;24.34;71.50
32243;BME280;18731;42.830;24.390;2022-09-09T16:06:53;94503.09;;;24.14;70.38
32243;BME280;18731;42.830;24.390;2022-09-09T16:09:20;94520.69;;;24.10;69.79
32243;BME280;18731;42.830;24.390;2022-09-09T16:11:46;94528.63;;;24.00;69.79
32243;BME280;18731;42.830;24.390;2022-09-09T16:14:13;94519.56;;;23.80;72.34
32243;BME280;18731;42.830;24.390;2022-09-09T16:16:41;94512.72;;;23.68;72.63
32243;BME280;18731;42.830;24.390;2022-09-09T16:19:09;94522.91;;;23.64;73.53
32243;BME280;18731;42.830;24.390;2022-09-09T16:21:39;94496.34;;;23.38;73.89
32243;BME280;18731;42.830;24.390;2022-09-09T16:24:07;94527.19;;;23.31;73.77
32243;BME280;18731;42.830;24.390;2022-09-09T16:26:36;94523.00;;;23.23;73.35
32243;BME280;18731;42.830;24.390;2022-09-09T16:29:02;94516.53;;;23.10;73.36
32243;BME280;18731;42.830;24.390;2022-09-09T16:31:29;94531.41;;;23.02;74.11
32243;BME280;18731;42.830;24.390;2022-09-09T16:33:55;94525.41;;;22.84;74.48
32243;BME280;18731;42.830;24.390;2022-09-09T16:36:23;94523.91;;;22.75;74.07
32243;BME280;18731;42.830;24.390;2022-09-09T16:38:54;94520.09;;;22.66;74.05
32243;BME280;18731;42.830;24.390;2022-09-09T16:41:23;94460.00;;;22.12;73.77
32243;BME280;18731;42.830;24.390;2022-09-09T16:43:57;94514.13;;;22.40;73.86
32243;BME280;18731;42.830;24.390;2022-09-09T16:46:23;94532.84;;;22.31;74.09
32243;BME280;18731;42.830;24.390;2022-09-09T16:48:50;94524.41;;;22.22;73.69
32243;BME280;18731;42.830;24.390;2022-09-09T16:51:22;94524.06;;;22.13;73.61
32243;BME280;18731;42.830;24.390;2022-09-09T16:53:49;94507.53;;;21.90;74.20
32243;BME280;18731;42.830;24.390;2022-09-09T16:56:19;94516.06;;;21.88;74.89
32243;BME280;18731;42.830;24.390;2022-09-09T16:58:53;94525.47;;;21.76;75.20
32243;BME280;18731;42.830;24.390;2022-09-09T17:01:25;94528.66;;;21.64;75.06
32243;BME280;18731;42.830;24.390;2022-09-09T17:03:54;94510.16;;;21.45;74.95
32243;BME280;18731;42.830;24.390;2022-09-09T17:06:21;94514.03;;;21.40;75.38
32243;BME280;18731;42.830;24.390;2022-09-09T17:08:47;94531.88;;;21.41;75.56
32243;BME280;18731;42.830;24.390;2022-09-09T17:11:17;94522.63;;;21.32;75.58
32243;BME280;18731;42.830;24.390;2022-09-09T17:13:45;94520.69;;;21.22;76.45
32243;BME280;18731;42.830;24.390;2022-09-09T17:16:13;94514.16;;;21.12;77.01
32243;BME280;18731;42.830;24.390;2022-09-09T17:18:39;94525.44;;;21.03;77.22
32243;BME280;18731;42.830;24.390;2022-09-09T17:21:08;94535.91;;;21.01;77.11
32243;BME280;18731;42.830;24.390;2022-09-09T17:23:35;94535.13;;;20.97;77.13
32243;BME280;18731;42.830;24.390;2022-09-09T17:26:08;94539.03;;;20.89;77.00
32243;BME280;18731;42.830;24.390;2022-09-09T17:28:36;94536.72;;;20.77;77.17
32243;BME280;18731;42.830;24.390;2022-09-09T17:31:08;94545.25;;;20.68;78.30
32243;BME280;18731;42.830;24.390;2022-09-09T17:33:36;94554.94;;;20.66;78.61
32243;BME280;18731;42.830;24.390;2022-09-09T17:36:11;94554.59;;;20.46;79.37
32243;BME280;18731;42.830;24.390;2022-09-09T17:38:37;94532.91;;;20.07;79.58
32243;BME280;18731;42.830;24.390;2022-09-09T17:41:11;94558.84;;;20.33;79.52
32243;BME280;18731;42.830;24.390;2022-09-09T17:43:37;94579.34;;;20.37;79.51